sensor_id;sensor_type;location;lat;lon;timestamp;P1;durP1;ratioP1;P2;durP2;ratioP2
5303;SDS011;2674;49.722;10.892;2024-02-26T00:01:38;5.70;;;3.10;;
5303;SDS011;2674;49.722;10.892;2024-02-26T00:04:04;5.90;;;2.97;;
5303;SDS011;2674;49.722;10.892;2024-02-26T00:06:30;3.23;;;2.60;;
5303;SDS011;2674;49.722;10.892;2024-02-26T00:08:56;2.97;;;2.63;;
5303;SDS011;2674;49.722;10.892;2024-02-26T00:11:22;2.10;;;1.90;;
5303;SDS011;2674;49.722;10.892;2024-02-26T00:13:47;2.40;;;2.30;;
5303;SDS011;2674;49.722;10.892;2024-02-26T00:16:13;2.73;;;2.53;;
5303;SDS011;2674;49.722;10.892;2024-02-26T00:18:39;3.23;;;2.17;;
5303;SDS011;2674;49.722;10.892;2024-02-26T00:21:05;2.43;;;2.20;;
5303;SDS011;2674;49.722;10.892;2024-02-26T00:23:31;3.97;;;3.07;;
5303;SDS011;2674;49.722;10.892;2024-02-26T00:25:57;6.63;;;3.00;;
5303;SDS011;2674;49.722;10.892;2024-02-26T00:28:23;2.93;;;2.30;;
5303;SDS011;2674;49.722;10.892;2024-02-26T00:30:49;3.60;;;2.60;;
5303;SDS011;2674;49.722;10.892;2024-02-26T00:33:20;6.00;;;2.50;;
5303;SDS011;2674;49.722;10.892;2024-02-26T00:35:47;2.80;;;2.23;;
5303;SDS011;2674;49.722;10.892;2024-02-26T00:38:13;2.43;;;2.17;;
5303;SDS011;2674;49.722;10.892;2024-02-26T00:40:39;2.50;;;1.87;;
5303;SDS011;2674;49.722;10.892;2024-02-26T00:43:06;4.40;;;2.50;;
5303;SDS011;2674;49.722;10.892;2024-02-26T00:45:32;3.03;;;2.70;;
5303;SDS011;2674;49.722;10.892;2024-02-26T00:47:58;2.83;;;1.80;;
5303;SDS011;2674;49.722;10.892;2024-02-26T00:50:26;3.17;;;2.23;;
5303;SDS011;2674;49.722;10.892;2024-02-26T00:52:52;2.50;;;2.30;;
5303;SDS011;2674;49.722;10.892;2024-02-26T00:55:18;2.60;;;2.20;;
5303;SDS011;2674;49.722;10.892;2024-02-26T00:57:43;2.83;;;2.10;;
5303;SDS011;2674;49.722;10.892;2024-02-26T01:00:10;3.30;;;2.37;;
5303;SDS011;2674;49.722;10.892;2024-02-26T01:02:36;2.30;;;2.10;;
5303;SDS011;2674;49.722;10.892;2024-02-26T01:05:03;3.87;;;2.20;;
5303;SDS011;2674;49.722;10.892;2024-02-26T01:07:31;2.93;;;2.63;;
5303;SDS011;2674;49.722;10.892;2024-02-26T01:10:01;4.37;;;2.33;;
5303;SDS011;2674;49.722;10.892;2024-02-26T01:12:27;2.60;;;2.40;;
5303;SDS011;2674;49.722;10.892;2024-02-26T01:14:53;5.07;;;2.53;;
5303;SDS011;2674;49.722;10.892;2024-02-26T01:17:19;5.30;;;2.60;;
5303;SDS011;2674;49.722;10.892;2024-02-26T01:19:44;2.67;;;2.30;;
5303;SDS011;2674;49.722;10.892;2024-02-26T01:22:10;2.30;;;2.10;;
5303;SDS011;2674;49.722;10.892;2024-02-26T01:24:36;2.20;;;2.10;;
5303;SDS011;2674;49.722;10.892;2024-02-26T01:27:02;3.30;;;2.30;;
5303;SDS011;2674;49.722;10.892;2024-02-26T01:29:28;2.57;;;2.03;;
5303;SDS011;2674;49.722;10.892;2024-02-26T01:31:53;3.43;;;2.47;;
5303;SDS011;2674;49.722;10.892;2024-02-26T01:34:20;5.00;;;2.57;;
5303;SDS011;2674;49.722;10.892;2024-02-26T01:36:45;3.03;;;2.70;;
5303;SDS011;2674;49.722;10.892;2024-02-26T01:39:11;1.80;;;1.70;;
5303;SDS011;2674;49.722;10.892;2024-02-26T01:41:38;4.73;;;2.40;;
5303;SDS011;2674;49.722;10.892;2024-02-26T01:44:04;3.93;;;2.50;;
5303;SDS011;2674;49.722;10.892;2024-02-26T01:46:31;3.13;;;2.40;;
5303;SDS011;2674;49.722;10.892;2024-02-26T01:48:59;4.70;;;2.70;;
5303;SDS011;2674;49.722;10.892;2024-02-26T01:51:26;4.60;;;2.33;;
5303;SDS011;2674;49.722;10.892;2024-02-26T01:53:52;3.20;;;2.23;;
5303;SDS011;2674;49.722;10.892;2024-02-26T01:56:18;5.33;;;2.23;;
5303;SDS011;2674;49.722;10.892;2024-02-26T01:58:46;3.57;;;2.40;;
5303;SDS011;2674;49.722;10.892;2024-02-26T02:01:13;2.93;;;2.27;;
5303;SDS011;2674;49.722;10.892;2024-02-26T02:03:43;10.00;;;2.73;;
5303;SDS011;2674;49.722;10.892;2024-02-26T02:06:10;3.73;;;2.20;;
5303;SDS011;2674;49.722;10.892;2024-02-26T02:08:37;5.53;;;2.07;;
5303;SDS011;2674;49.722;10.892;2024-02-26T02:11:04;3.47;;;2.77;;
5303;SDS011;2674;49.722;10.892;2024-02-26T02:13:31;4.50;;;2.53;;
5303;SDS011;2674;49.722;10.892;2024-02-26T02:15:56;2.90;;;2.30;;
5303;SDS011;2674;49.722;10.892;2024-02-26T02:18:22;2.60;;;2.20;;
5303;SDS011;2674;49.722;10.892;2024-02-26T02:20:48;3.20;;;2.27;;
5303;SDS011;2674;49.722;10.892;2024-02-26T02:23:14;4.93;;;3.00;;
5303;SDS011;2674;49.722;10.892;2024-02-26T02:25:40;6.23;;;2.30;;
5303;SDS011;2674;49.722;10.892;2024-02-26T02:28:05;5.20;;;2.60;;
5303;SDS011;2674;49.722;10.892;2024-02-26T02:30:31;2.70;;;2.50;;
5303;SDS011;2674;49.722;10.892;2024-02-26T02:32:58;4.87;;;2.30;;
5303;SDS011;2674;49.722;10.892;2024-02-26T02:35:24;5.23;;;2.93;;
5303;SDS011;2674;49.722;10.892;2024-02-26T02:37:54;3.23;;;2.70;;
5303;SDS011;2674;49.722;10.892;2024-02-26T02:40:21;9.90;;;2.47;;
5303;SDS011;2674;49.722;10.892;2024-02-26T02:42:46;4.67;;;2.90;;
5303;SDS011;2674;49.722;10.892;2024-02-26T02:45:12;15.03;;;3.30;;
5303;SDS011;2674;49.722;10.892;2024-02-26T02:47:38;6.03;;;3.27;;
5303;SDS011;2674;49.722;10.892;2024-02-26T02:50:04;5.03;;;3.03;;
5303;SDS011;2674;49.722;10.892;2024-02-26T02:52:30;4.00;;;3.10;;
5303;SDS011;2674;49.722;10.892;2024-02-26T02:54:56;3.70;;;2.70;;
5303;SDS011;2674;49.722;10.892;2024-02-26T02:57:22;4.00;;;3.00;;
5303;SDS011;2674;49.722;10.892;2024-02-26T02:59:48;5.97;;;3.33;;
5303;SDS011;2674;49.722;10.892;2024-02-26T03:02:14;5.60;;;3.37;;
5303;SDS011;2674;49.722;10.892;2024-02-26T03:04:40;8.13;;;3.10;;
5303;SDS011;2674;49.722;10.892;2024-02-26T03:07:06;3.00;;;2.67;;
5303;SDS011;2674;49.722;10.892;2024-02-26T03:09:31;2.67;;;2.47;;
5303;SDS011;2674;49.722;10.892;2024-02-26T03:11:57;3.00;;;2.70;;
5303;SDS011;2674;49.722;10.892;2024-02-26T03:14:23;2.97;;;2.43;;
5303;SDS011;2674;49.722;10.892;2024-02-26T03:16:52;6.87;;;3.50;;
5303;SDS011;2674;49.722;10.892;2024-02-26T03:19:21;2.70;;;2.50;;
5303;SDS011;2674;49.722;10.892;2024-02-26T03:21:47;5.10;;;3.03;;
5303;SDS011;2674;49.722;10.892;2024-02-26T03:24:13;3.70;;;3.03;;
5303;SDS011;2674;49.722;10.892;2024-02-26T03:26:39;3.67;;;2.23;;
5303;SDS011;2674;49.722;10.892;2024-02-26T03:29:05;2.20;;;2.10;;
5303;SDS011;2674;49.722;10.892;2024-02-26T03:31:31;2.77;;;2.27;;
5303;SDS011;2674;49.722;10.892;2024-02-26T03:33:57;7.53;;;2.53;;
5303;SDS011;2674;49.722;10.892;2024-02-26T03:36:22;4.13;;;2.37;;
5303;SDS011;2674;49.722;10.892;2024-02-26T03:38:48;3.40;;;2.40;;
5303;SDS011;2674;49.722;10.892;2024-02-26T03:41:14;3.50;;;2.43;;
5303;SDS011;2674;49.722;10.892;2024-02-26T03:43:40;4.47;;;2.67;;
5303;SDS011;2674;49.722;10.892;2024-02-26T03:46:09;2.47;;;2.27;;
5303;SDS011;2674;49.722;10.892;2024-02-26T03:48:39;4.67;;;2.63;;
5303;SDS011;2674;49.722;10.892;2024-02-26T03:51:08;2.40;;;2.00;;
5303;SDS011;2674;49.722;10.892;2024-02-26T03:53:35;2.53;;;2.33;;
5303;SDS011;2674;49.722;10.892;2024-02-26T03:56:05;1.83;;;1.67;;
5303;SDS011;2674;49.722;10.892;2024-02-26T03:58:31;3.73;;;2.37;;
5303;SDS011;2674;49.722;10.892;2024-02-26T04:00:58;4.47;;;2.70;;
5303;SDS011;2674;49.722;10.892;2024-02-26T04:03:25;2.87;;;2.40;;
5303;SDS011;2674;49.722;10.892;2024-02-26T04:05:51;1.73;;;1.63;;
5303;SDS011;2674;49.722;10.892;2024-02-26T04:08:16;1.87;;;1.70;;
5303;SDS011;2674;49.722;10.892;2024-02-26T04:10:42;3.87;;;2.63;;
5303;SDS011;2674;49.722;10.892;2024-02-26T04:13:08;1.83;;;1.67;;
5303;SDS011;2674;49.722;10.892;2024-02-26T04:15:34;2.60;;;2.40;;
5303;SDS011;2674;49.722;10.892;2024-02-26T04:18:00;4.73;;;3.00;;
5303;SDS011;2674;49.722;10.892;2024-02-26T04:20:26;2.70;;;2.50;;
5303;SDS011;2674;49.722;10.892;2024-02-26T04:22:51;2.53;;;2.33;;
5303;SDS011;2674;49.722;10.892;2024-02-26T04:25:18;4.40;;;2.90;;
5303;SDS011;2674;49.722;10.892;2024-02-26T04:27:43;4.80;;;2.87;;
5303;SDS011;2674;49.722;10.892;2024-02-26T04:30:09;6.93;;;2.83;;
5303;SDS011;2674;49.722;10.892;2024-02-26T04:32:36;7.53;;;2.43;;
5303;SDS011;2674;49.722;10.892;2024-02-26T04:35:02;3.07;;;2.53;;
5303;SDS011;2674;49.722;10.892;2024-02-26T04:37:28;2.53;;;2.33;;
5303;SDS011;2674;49.722;10.892;2024-02-26T04:40:00;6.57;;;2.33;;
5303;SDS011;2674;49.722;10.892;2024-02-26T04:42:26;4.43;;;2.40;;
5303;SDS011;2674;49.722;10.892;2024-02-26T04:44:52;2.10;;;2.00;;
5303;SDS011;2674;49.722;10.892;2024-02-26T04:47:19;6.73;;;2.80;;
5303;SDS011;2674;49.722;10.892;2024-02-26T04:49:47;3.07;;;2.60;;
5303;SDS011;2674;49.722;10.892;2024-02-26T04:52:17;3.43;;;2.40;;
5303;SDS011;2674;49.722;10.892;2024-02-26T04:54:43;3.63;;;2.93;;
5303;SDS011;2674;49.722;10.892;2024-02-26T04:57:09;7.90;;;2.70;;
5303;SDS011;2674;49.722;10.892;2024-02-26T04:59:35;3.60;;;2.63;;
5303;SDS011;2674;49.722;10.892;2024-02-26T05:02:01;6.43;;;3.30;;
5303;SDS011;2674;49.722;10.892;2024-02-26T05:04:27;4.23;;;2.93;;
5303;SDS011;2674;49.722;10.892;2024-02-26T05:06:53;3.27;;;2.87;;
5303;SDS011;2674;49.722;10.892;2024-02-26T05:09:18;5.80;;;3.27;;
5303;SDS011;2674;49.722;10.892;2024-02-26T05:11:45;6.47;;;3.20;;
5303;SDS011;2674;49.722;10.892;2024-02-26T05:14:10;3.33;;;2.67;;
5303;SDS011;2674;49.722;10.892;2024-02-26T05:16:36;4.23;;;3.20;;
5303;SDS011;2674;49.722;10.892;2024-02-26T05:19:02;3.80;;;3.27;;
5303;SDS011;2674;49.722;10.892;2024-02-26T05:21:28;4.40;;;3.27;;
5303;SDS011;2674;49.722;10.892;2024-02-26T05:23:54;3.80;;;2.67;;
5303;SDS011;2674;49.722;10.892;2024-02-26T05:26:20;3.67;;;2.60;;
5303;SDS011;2674;49.722;10.892;2024-02-26T05:28:47;3.40;;;2.90;;
5303;SDS011;2674;49.722;10.892;2024-02-26T05:31:13;3.37;;;2.53;;
5303;SDS011;2674;49.722;10.892;2024-02-26T05:33:39;5.03;;;3.77;;
5303;SDS011;2674;49.722;10.892;2024-02-26T05:36:05;4.50;;;3.67;;
5303;SDS011;2674;49.722;10.892;2024-02-26T05:38:31;4.77;;;3.97;;
5303;SDS011;2674;49.722;10.892;2024-02-26T05:40:58;4.30;;;3.90;;
5303;SDS011;2674;49.722;10.892;2024-02-26T05:43:27;6.30;;;3.40;;
5303;SDS011;2674;49.722;10.892;2024-02-26T05:45:53;4.43;;;3.20;;
5303;SDS011;2674;49.722;10.892;2024-02-26T05:48:19;6.00;;;5.40;;
5303;SDS011;2674;49.722;10.892;2024-02-26T05:50:45;5.60;;;4.40;;
5303;SDS011;2674;49.722;10.892;2024-02-26T05:53:12;7.93;;;4.27;;
5303;SDS011;2674;49.722;10.892;2024-02-26T05:55:37;7.40;;;3.90;;
5303;SDS011;2674;49.722;10.892;2024-02-26T05:58:04;9.57;;;3.60;;
5303;SDS011;2674;49.722;10.892;2024-02-26T06:00:29;3.40;;;2.97;;
5303;SDS011;2674;49.722;10.892;2024-02-26T06:02:55;4.27;;;2.47;;
5303;SDS011;2674;49.722;10.892;2024-02-26T06:05:21;2.90;;;2.70;;
5303;SDS011;2674;49.722;10.892;2024-02-26T06:07:47;4.43;;;2.80;;
5303;SDS011;2674;49.722;10.892;2024-02-26T06:10:13;3.83;;;2.77;;
5303;SDS011;2674;49.722;10.892;2024-02-26T06:12:39;3.40;;;3.00;;
5303;SDS011;2674;49.722;10.892;2024-02-26T06:15:05;3.63;;;2.80;;
5303;SDS011;2674;49.722;10.892;2024-02-26T06:17:31;3.33;;;2.90;;
5303;SDS011;2674;49.722;10.892;2024-02-26T06:19:57;5.60;;;3.50;;
5303;SDS011;2674;49.722;10.892;2024-02-26T06:22:24;5.90;;;4.30;;
5303;SDS011;2674;49.722;10.892;2024-02-26T06:24:50;8.50;;;5.60;;
5303;SDS011;2674;49.722;10.892;2024-02-26T06:27:16;6.97;;;4.97;;
5303;SDS011;2674;49.722;10.892;2024-02-26T06:29:43;8.10;;;4.93;;
5303;SDS011;2674;49.722;10.892;2024-02-26T06:32:08;6.40;;;3.60;;
5303;SDS011;2674;49.722;10.892;2024-02-26T06:34:34;4.37;;;3.73;;
5303;SDS011;2674;49.722;10.892;2024-02-26T06:37:00;5.50;;;4.17;;
5303;SDS011;2674;49.722;10.892;2024-02-26T06:39:26;4.73;;;4.33;;
5303;SDS011;2674;49.722;10.892;2024-02-26T06:41:52;7.10;;;4.80;;
5303;SDS011;2674;49.722;10.892;2024-02-26T06:44:25;4.60;;;3.90;;
5303;SDS011;2674;49.722;10.892;2024-02-26T06:46:51;6.97;;;3.67;;
5303;SDS011;2674;49.722;10.892;2024-02-26T06:49:17;6.03;;;3.80;;
5303;SDS011;2674;49.722;10.892;2024-02-26T06:51:42;6.37;;;4.30;;
5303;SDS011;2674;49.722;10.892;2024-02-26T06:54:08;6.73;;;3.90;;
5303;SDS011;2674;49.722;10.892;2024-02-26T06:56:34;8.67;;;4.40;;
5303;SDS011;2674;49.722;10.892;2024-02-26T06:59:00;4.33;;;3.70;;
5303;SDS011;2674;49.722;10.892;2024-02-26T07:01:26;10.50;;;4.17;;
5303;SDS011;2674;49.722;10.892;2024-02-26T07:03:52;6.33;;;3.80;;
5303;SDS011;2674;49.722;10.892;2024-02-26T07:06:18;6.03;;;4.00;;
5303;SDS011;2674;49.722;10.892;2024-02-26T07:08:43;5.50;;;4.13;;
5303;SDS011;2674;49.722;10.892;2024-02-26T07:11:10;5.10;;;4.40;;
5303;SDS011;2674;49.722;10.892;2024-02-26T07:13:36;6.00;;;3.93;;
5303;SDS011;2674;49.722;10.892;2024-02-26T07:16:02;7.83;;;5.27;;
5303;SDS011;2674;49.722;10.892;2024-02-26T07:18:31;8.73;;;4.93;;
5303;SDS011;2674;49.722;10.892;2024-02-26T07:20:57;9.77;;;5.20;;
5303;SDS011;2674;49.722;10.892;2024-02-26T07:23:22;6.33;;;4.60;;
5303;SDS011;2674;49.722;10.892;2024-02-26T07:25:48;5.33;;;3.80;;
5303;SDS011;2674;49.722;10.892;2024-02-26T07:28:17;4.37;;;2.93;;
5303;SDS011;2674;49.722;10.892;2024-02-26T07:30:44;4.43;;;3.27;;
5303;SDS011;2674;49.722;10.892;2024-02-26T07:33:10;3.50;;;2.70;;
5303;SDS011;2674;49.722;10.892;2024-02-26T07:35:36;7.17;;;4.13;;
5303;SDS011;2674;49.722;10.892;2024-02-26T07:38:04;14.00;;;6.70;;
5303;SDS011;2674;49.722;10.892;2024-02-26T07:40:30;10.90;;;7.10;;
5303;SDS011;2674;49.722;10.892;2024-02-26T07:42:56;8.13;;;6.13;;
5303;SDS011;2674;49.722;10.892;2024-02-26T07:45:22;7.00;;;4.50;;
5303;SDS011;2674;49.722;10.892;2024-02-26T07:47:50;11.90;;;5.27;;
5303;SDS011;2674;49.722;10.892;2024-02-26T07:50:17;19.00;;;7.40;;
5303;SDS011;2674;49.722;10.892;2024-02-26T07:52:44;7.07;;;4.37;;
5303;SDS011;2674;49.722;10.892;2024-02-26T07:55:10;4.80;;;3.17;;
5303;SDS011;2674;49.722;10.892;2024-02-26T07:57:36;24.33;;;9.40;;
5303;SDS011;2674;49.722;10.892;2024-02-26T08:00:03;12.87;;;5.30;;
5303;SDS011;2674;49.722;10.892;2024-02-26T08:02:29;3.33;;;2.80;;
5303;SDS011;2674;49.722;10.892;2024-02-26T08:04:55;12.53;;;4.87;;
5303;SDS011;2674;49.722;10.892;2024-02-26T08:07:20;22.47;;;7.93;;
5303;SDS011;2674;49.722;10.892;2024-02-26T08:09:47;65.60;;;21.03;;
5303;SDS011;2674;49.722;10.892;2024-02-26T08:12:13;13.43;;;6.83;;
5303;SDS011;2674;49.722;10.892;2024-02-26T08:14:39;15.20;;;8.07;;
5303;SDS011;2674;49.722;10.892;2024-02-26T08:17:05;13.77;;;6.80;;
5303;SDS011;2674;49.722;10.892;2024-02-26T08:19:31;19.17;;;8.10;;
5303;SDS011;2674;49.722;10.892;2024-02-26T08:21:57;13.93;;;7.20;;
5303;SDS011;2674;49.722;10.892;2024-02-26T08:24:23;12.00;;;5.47;;
5303;SDS011;2674;49.722;10.892;2024-02-26T08:26:48;11.10;;;4.30;;
5303;SDS011;2674;49.722;10.892;2024-02-26T08:29:14;7.03;;;4.00;;
5303;SDS011;2674;49.722;10.892;2024-02-26T08:31:40;4.90;;;3.97;;
5303;SDS011;2674;49.722;10.892;2024-02-26T08:34:06;8.00;;;4.87;;
5303;SDS011;2674;49.722;10.892;2024-02-26T08:36:35;12.90;;;6.30;;
5303;SDS011;2674;49.722;10.892;2024-02-26T08:39:00;10.43;;;5.50;;
5303;SDS011;2674;49.722;10.892;2024-02-26T08:41:26;8.27;;;5.57;;
5303;SDS011;2674;49.722;10.892;2024-02-26T08:43:52;9.43;;;5.97;;
5303;SDS011;2674;49.722;10.892;2024-02-26T08:46:18;5.87;;;4.30;;
5303;SDS011;2674;49.722;10.892;2024-02-26T08:48:44;7.53;;;4.27;;
5303;SDS011;2674;49.722;10.892;2024-02-26T08:51:09;7.07;;;4.77;;
5303;SDS011;2674;49.722;10.892;2024-02-26T08:53:35;5.33;;;4.47;;
5303;SDS011;2674;49.722;10.892;2024-02-26T08:56:01;13.90;;;5.37;;
5303;SDS011;2674;49.722;10.892;2024-02-26T08:58:28;5.97;;;4.40;;
5303;SDS011;2674;49.722;10.892;2024-02-26T09:00:54;7.70;;;4.97;;
5303;SDS011;2674;49.722;10.892;2024-02-26T09:03:20;6.33;;;4.27;;
5303;SDS011;2674;49.722;10.892;2024-02-26T09:05:46;6.73;;;4.03;;
5303;SDS011;2674;49.722;10.892;2024-02-26T09:08:12;7.50;;;4.90;;
5303;SDS011;2674;49.722;10.892;2024-02-26T09:10:38;6.57;;;3.67;;
5303;SDS011;2674;49.722;10.892;2024-02-26T09:13:04;8.47;;;4.93;;
5303;SDS011;2674;49.722;10.892;2024-02-26T09:15:30;5.77;;;3.70;;
5303;SDS011;2674;49.722;10.892;2024-02-26T09:17:56;5.07;;;3.37;;
5303;SDS011;2674;49.722;10.892;2024-02-26T09:20:22;10.00;;;5.10;;
5303;SDS011;2674;49.722;10.892;2024-02-26T09:22:48;6.77;;;4.90;;
5303;SDS011;2674;49.722;10.892;2024-02-26T09:25:15;6.43;;;4.47;;
5303;SDS011;2674;49.722;10.892;2024-02-26T09:27:45;5.10;;;4.57;;
5303;SDS011;2674;49.722;10.892;2024-02-26T09:30:12;7.17;;;4.77;;
5303;SDS011;2674;49.722;10.892;2024-02-26T09:32:39;6.07;;;3.80;;
5303;SDS011;2674;49.722;10.892;2024-02-26T09:35:05;8.10;;;3.87;;
5303;SDS011;2674;49.722;10.892;2024-02-26T09:37:32;7.40;;;4.53;;
5303;SDS011;2674;49.722;10.892;2024-02-26T09:39:59;5.80;;;4.10;;
5303;SDS011;2674;49.722;10.892;2024-02-26T09:42:25;9.33;;;5.13;;
5303;SDS011;2674;49.722;10.892;2024-02-26T09:44:55;7.13;;;5.57;;
5303;SDS011;2674;49.722;10.892;2024-02-26T09:47:24;5.70;;;3.90;;
5303;SDS011;2674;49.722;10.892;2024-02-26T09:49:53;8.03;;;3.80;;
5303;SDS011;2674;49.722;10.892;2024-02-26T09:52:21;8.80;;;4.03;;
5303;SDS011;2674;49.722;10.892;2024-02-26T09:54:48;4.83;;;3.67;;
5303;SDS011;2674;49.722;10.892;2024-02-26T09:57:15;5.35;;;3.63;;
5303;SDS011;2674;49.722;10.892;2024-02-26T09:59:42;3.60;;;3.10;;
5303;SDS011;2674;49.722;10.892;2024-02-26T10:02:09;3.33;;;3.03;;
5303;SDS011;2674;49.722;10.892;2024-02-26T10:04:41;4.80;;;3.60;;
5303;SDS011;2674;49.722;10.892;2024-02-26T10:07:11;4.23;;;3.87;;
5303;SDS011;2674;49.722;10.892;2024-02-26T10:09:39;3.80;;;2.93;;
5303;SDS011;2674;49.722;10.892;2024-02-26T10:12:06;3.33;;;2.73;;
5303;SDS011;2674;49.722;10.892;2024-02-26T10:14:36;7.07;;;3.00;;
5303;SDS011;2674;49.722;10.892;2024-02-26T10:17:02;3.50;;;2.80;;
5303;SDS011;2674;49.722;10.892;2024-02-26T10:19:30;4.30;;;2.87;;
5303;SDS011;2674;49.722;10.892;2024-02-26T10:21:56;4.10;;;3.13;;
5303;SDS011;2674;49.722;10.892;2024-02-26T10:24:23;3.97;;;2.87;;
5303;SDS011;2674;49.722;10.892;2024-02-26T10:26:50;3.57;;;2.90;;
5303;SDS011;2674;49.722;10.892;2024-02-26T10:29:19;3.57;;;2.73;;
5303;SDS011;2674;49.722;10.892;2024-02-26T10:31:46;2.70;;;2.30;;
5303;SDS011;2674;49.722;10.892;2024-02-26T10:34:12;3.90;;;3.00;;
5303;SDS011;2674;49.722;10.892;2024-02-26T10:36:38;2.60;;;2.40;;
5303;SDS011;2674;49.722;10.892;2024-02-26T10:39:06;3.27;;;2.77;;
5303;SDS011;2674;49.722;10.892;2024-02-26T10:41:35;7.67;;;3.23;;
5303;SDS011;2674;49.722;10.892;2024-02-26T10:44:01;5.57;;;2.93;;
5303;SDS011;2674;49.722;10.892;2024-02-26T10:46:27;6.13;;;3.30;;
5303;SDS011;2674;49.722;10.892;2024-02-26T10:48:53;3.87;;;3.43;;
5303;SDS011;2674;49.722;10.892;2024-02-26T10:51:29;5.40;;;3.77;;
5303;SDS011;2674;49.722;10.892;2024-02-26T10:53:56;4.60;;;3.03;;
5303;SDS011;2674;49.722;10.892;2024-02-26T10:56:25;3.87;;;3.20;;
5303;SDS011;2674;49.722;10.892;2024-02-26T10:58:55;3.13;;;2.93;;
5303;SDS011;2674;49.722;10.892;2024-02-26T11:01:21;5.17;;;3.43;;
5303;SDS011;2674;49.722;10.892;2024-02-26T11:03:50;2.87;;;2.57;;
5303;SDS011;2674;49.722;10.892;2024-02-26T11:06:21;3.00;;;2.77;;
5303;SDS011;2674;49.722;10.892;2024-02-26T11:08:50;4.77;;;2.90;;
5303;SDS011;2674;49.722;10.892;2024-02-26T11:11:17;6.30;;;3.53;;
5303;SDS011;2674;49.722;10.892;2024-02-26T11:13:47;5.60;;;5.13;;
5303;SDS011;2674;49.722;10.892;2024-02-26T11:16:19;4.40;;;3.47;;
5303;SDS011;2674;49.722;10.892;2024-02-26T11:18:47;4.40;;;3.23;;
5303;SDS011;2674;49.722;10.892;2024-02-26T11:21:17;3.67;;;3.30;;
5303;SDS011;2674;49.722;10.892;2024-02-26T11:23:47;4.60;;;3.23;;
5303;SDS011;2674;49.722;10.892;2024-02-26T11:26:14;2.87;;;2.67;;
5303;SDS011;2674;49.722;10.892;2024-02-26T11:28:42;3.27;;;2.97;;
5303;SDS011;2674;49.722;10.892;2024-02-26T11:31:09;2.83;;;2.63;;
5303;SDS011;2674;49.722;10.892;2024-02-26T11:33:36;4.50;;;3.00;;
5303;SDS011;2674;49.722;10.892;2024-02-26T11:36:08;2.67;;;2.53;;
5303;SDS011;2674;49.722;10.892;2024-02-26T11:38:35;3.60;;;3.20;;
5303;SDS011;2674;49.722;10.892;2024-02-26T11:41:01;5.90;;;2.80;;
5303;SDS011;2674;49.722;10.892;2024-02-26T11:46:28;3.43;;;2.80;;
5303;SDS011;2674;49.722;10.892;2024-02-26T11:49:02;5.00;;;3.73;;
5303;SDS011;2674;49.722;10.892;2024-02-26T11:51:50;4.10;;;3.20;;
5303;SDS011;2674;49.722;10.892;2024-02-26T11:59:53;3.23;;;2.60;;
5303;SDS011;2674;49.722;10.892;2024-02-26T12:02:51;3.00;;;2.70;;
5303;SDS011;2674;49.722;10.892;2024-02-26T12:05:26;3.77;;;3.20;;
5303;SDS011;2674;49.722;10.892;2024-02-26T12:07:59;3.03;;;2.73;;
5303;SDS011;2674;49.722;10.892;2024-02-26T12:13:08;4.93;;;3.30;;
5303;SDS011;2674;49.722;10.892;2024-02-26T12:15:42;3.33;;;2.60;;
5303;SDS011;2674;49.722;10.892;2024-02-26T12:18:09;4.47;;;2.97;;
5303;SDS011;2674;49.722;10.892;2024-02-26T12:20:36;5.07;;;2.87;;
5303;SDS011;2674;49.722;10.892;2024-02-26T12:23:03;3.00;;;2.43;;
5303;SDS011;2674;49.722;10.892;2024-02-26T12:25:29;3.50;;;3.10;;
5303;SDS011;2674;49.722;10.892;2024-02-26T12:27:56;3.90;;;2.70;;
5303;SDS011;2674;49.722;10.892;2024-02-26T12:30:23;3.20;;;2.40;;
5303;SDS011;2674;49.722;10.892;2024-02-26T12:32:51;3.07;;;2.87;;
5303;SDS011;2674;49.722;10.892;2024-02-26T12:35:18;4.60;;;2.40;;
5303;SDS011;2674;49.722;10.892;2024-02-26T12:37:44;2.67;;;2.43;;
5303;SDS011;2674;49.722;10.892;2024-02-26T12:40:10;2.97;;;2.70;;
5303;SDS011;2674;49.722;10.892;2024-02-26T12:42:38;3.27;;;2.30;;
5303;SDS011;2674;49.722;10.892;2024-02-26T12:45:07;2.30;;;1.90;;
5303;SDS011;2674;49.722;10.892;2024-02-26T12:47:43;2.50;;;2.40;;
5303;SDS011;2674;49.722;10.892;2024-02-26T12:50:16;3.83;;;2.20;;
5303;SDS011;2674;49.722;10.892;2024-02-26T12:52:45;2.57;;;2.37;;
5303;SDS011;2674;49.722;10.892;2024-02-26T12:55:15;2.67;;;2.43;;
5303;SDS011;2674;49.722;10.892;2024-02-26T12:57:43;3.40;;;2.30;;
5303;SDS011;2674;49.722;10.892;2024-02-26T13:00:14;2.80;;;2.40;;
5303;SDS011;2674;49.722;10.892;2024-02-26T13:02:43;3.27;;;2.60;;
5303;SDS011;2674;49.722;10.892;2024-02-26T13:05:11;3.33;;;2.90;;
5303;SDS011;2674;49.722;10.892;2024-02-26T13:07:42;2.90;;;2.63;;
5303;SDS011;2674;49.722;10.892;2024-02-26T13:10:09;3.67;;;2.90;;
5303;SDS011;2674;49.722;10.892;2024-02-26T13:12:37;5.63;;;4.17;;
5303;SDS011;2674;49.722;10.892;2024-02-26T13:15:13;3.13;;;2.87;;
5303;SDS011;2674;49.722;10.892;2024-02-26T13:17:41;3.10;;;2.27;;
5303;SDS011;2674;49.722;10.892;2024-02-26T13:20:08;3.33;;;2.70;;
5303;SDS011;2674;49.722;10.892;2024-02-26T13:22:35;6.40;;;2.27;;
5303;SDS011;2674;49.722;10.892;2024-02-26T13:25:01;3.50;;;2.03;;
5303;SDS011;2674;49.722;10.892;2024-02-26T13:27:32;2.93;;;2.63;;
5303;SDS011;2674;49.722;10.892;2024-02-26T13:30:02;2.40;;;2.30;;
5303;SDS011;2674;49.722;10.892;2024-02-26T13:32:33;2.70;;;2.17;;
5303;SDS011;2674;49.722;10.892;2024-02-26T13:35:04;2.77;;;2.10;;
5303;SDS011;2674;49.722;10.892;2024-02-26T13:37:34;2.30;;;2.10;;
5303;SDS011;2674;49.722;10.892;2024-02-26T13:40:04;3.13;;;2.23;;
5303;SDS011;2674;49.722;10.892;2024-02-26T13:42:31;3.33;;;2.73;;
5303;SDS011;2674;49.722;10.892;2024-02-26T13:44:56;3.27;;;2.60;;
5303;SDS011;2674;49.722;10.892;2024-02-26T13:47:22;2.60;;;2.37;;
5303;SDS011;2674;49.722;10.892;2024-02-26T13:49:48;2.13;;;1.93;;
5303;SDS011;2674;49.722;10.892;2024-02-26T13:52:14;3.77;;;3.10;;
5303;SDS011;2674;49.722;10.892;2024-02-26T13:54:40;2.63;;;2.40;;
5303;SDS011;2674;49.722;10.892;2024-02-26T13:57:06;2.63;;;2.10;;
5303;SDS011;2674;49.722;10.892;2024-02-26T13:59:32;4.00;;;2.93;;
5303;SDS011;2674;49.722;10.892;2024-02-26T14:01:57;3.03;;;2.50;;
5303;SDS011;2674;49.722;10.892;2024-02-26T14:04:23;2.67;;;2.00;;
5303;SDS011;2674;49.722;10.892;2024-02-26T14:06:52;2.10;;;2.00;;
5303;SDS011;2674;49.722;10.892;2024-02-26T14:09:18;1.90;;;1.80;;
5303;SDS011;2674;49.722;10.892;2024-02-26T14:11:47;3.20;;;2.90;;
5303;SDS011;2674;49.722;10.892;2024-02-26T14:14:13;1.90;;;1.80;;
5303;SDS011;2674;49.722;10.892;2024-02-26T14:16:39;1.97;;;1.87;;
5303;SDS011;2674;49.722;10.892;2024-02-26T14:19:04;1.77;;;1.67;;
5303;SDS011;2674;49.722;10.892;2024-02-26T14:21:30;1.90;;;1.80;;
5303;SDS011;2674;49.722;10.892;2024-02-26T14:23:56;1.70;;;1.60;;
5303;SDS011;2674;49.722;10.892;2024-02-26T14:26:22;2.37;;;2.20;;
5303;SDS011;2674;49.722;10.892;2024-02-26T14:28:48;2.10;;;1.90;;
5303;SDS011;2674;49.722;10.892;2024-02-26T14:31:17;2.10;;;1.90;;
5303;SDS011;2674;49.722;10.892;2024-02-26T14:33:43;2.13;;;1.50;;
5303;SDS011;2674;49.722;10.892;2024-02-26T14:36:10;2.40;;;2.03;;
5303;SDS011;2674;49.722;10.892;2024-02-26T14:38:36;2.23;;;2.13;;
5303;SDS011;2674;49.722;10.892;2024-02-26T14:41:04;2.43;;;2.07;;
5303;SDS011;2674;49.722;10.892;2024-02-26T14:43:31;3.27;;;2.60;;
5303;SDS011;2674;49.722;10.892;2024-02-26T14:45:57;4.43;;;2.13;;
5303;SDS011;2674;49.722;10.892;2024-02-26T14:48:24;1.90;;;1.80;;
5303;SDS011;2674;49.722;10.892;2024-02-26T14:50:50;2.67;;;1.67;;
5303;SDS011;2674;49.722;10.892;2024-02-26T14:53:16;1.90;;;1.80;;
5303;SDS011;2674;49.722;10.892;2024-02-26T14:55:42;1.70;;;1.60;;
5303;SDS011;2674;49.722;10.892;2024-02-26T14:58:08;2.87;;;2.10;;
5303;SDS011;2674;49.722;10.892;2024-02-26T15:00:36;4.90;;;2.63;;
5303;SDS011;2674;49.722;10.892;2024-02-26T15:03:03;3.83;;;1.93;;
5303;SDS011;2674;49.722;10.892;2024-02-26T15:05:29;3.73;;;2.20;;
5303;SDS011;2674;49.722;10.892;2024-02-26T15:07:55;2.00;;;1.87;;
5303;SDS011;2674;49.722;10.892;2024-02-26T15:10:21;2.13;;;1.93;;